Cathlamet, Washington
Current Conditions -  °F | °C
As of 7:15 AM on Thursday 18 Dec 2014 (Local Time) from KKLS Reporting Station
Overcast Overcast  
Wind Chill: 41°   Ceiling: 5000
Heat Index: 45°   Visibility: 10mi
Dew Point: 41°   Wind: 7mph
Humidity: 87%   Direction: 150°SSE
Pressure: 29.98"   Gusts: NA
Location:  46.2°N, 123.38°W
Report Text: KKLS 181515Z 15006KT 10SM OVC050 07/05 A2998 RMK AO1
Loading
Personal Weather Stations






























Interactive Weather Map New forecast layout! Learn more

10-Day Weather Forecast

Advertisements
Track Severe Weather on mobile